createdAt,value
2023-04-28T00:01:46.242Z,5.82
2023-04-28T00:04:14.173Z,8.25
2023-04-28T00:06:41.633Z,6.60
2023-04-28T00:09:11.188Z,11.95
2023-04-28T00:11:38.618Z,10.02
2023-04-28T00:14:06.053Z,5.43
2023-04-28T00:16:33.014Z,6.45
2023-04-28T00:19:00.736Z,5.88
2023-04-28T00:21:28.761Z,7.05
2023-04-28T00:23:56.388Z,6.03
2023-04-28T00:26:23.473Z,8.48
2023-04-28T00:28:50.920Z,4.55
2023-04-28T00:31:18.010Z,5.25
2023-04-28T00:33:45.380Z,7.70
2023-04-28T00:36:12.413Z,12.43
2023-04-28T00:38:39.741Z,7.15
2023-04-28T00:41:06.792Z,8.45
2023-04-28T00:43:45.494Z,8.77
2023-04-28T00:46:20.571Z,8.98
2023-04-28T00:48:48.141Z,6.53
2023-04-28T00:51:15.559Z,5.47
2023-04-28T00:53:43.817Z,5.60
2023-04-28T00:56:10.848Z,6.22
2023-04-28T00:58:38.159Z,5.10
2023-04-28T01:01:05.839Z,6.93
2023-04-28T01:03:38.272Z,7.05
2023-04-28T01:06:07.283Z,7.45
2023-04-28T01:08:36.690Z,7.30
2023-04-28T01:11:07.226Z,6.45
2023-04-28T01:13:59.436Z,7.80
2023-04-28T01:16:28.302Z,6.43
2023-04-28T01:18:56.176Z,10.18
2023-04-28T01:21:29.160Z,8.27
2023-04-28T01:24:01.076Z,5.07
2023-04-28T01:26:28.631Z,5.70
2023-04-28T01:28:55.920Z,5.60
2023-04-28T01:31:23.068Z,5.38
2023-04-28T01:33:50.609Z,6.60
2023-04-28T01:36:17.553Z,9.55
2023-04-28T01:38:44.755Z,7.82
2023-04-28T01:41:13.674Z,8.73
2023-04-28T01:43:40.922Z,4.93
2023-04-28T01:46:07.833Z,8.52
2023-04-28T01:48:35.138Z,6.65
2023-04-28T01:51:02.121Z,6.68
2023-04-28T01:53:29.376Z,7.45
2023-04-28T01:55:56.689Z,6.82
2023-04-28T01:58:24.305Z,7.50
2023-04-28T02:00:51.689Z,7.25
2023-04-28T02:03:21.429Z,6.70
2023-04-28T02:05:48.485Z,10.90
2023-04-28T02:08:16.078Z,6.53
2023-04-28T02:10:43.918Z,7.38
2023-04-28T02:13:11.283Z,6.10
2023-04-28T02:15:42.931Z,7.10
2023-04-28T02:18:10.824Z,7.15
2023-04-28T02:20:40.897Z,8.13
2023-04-28T02:23:08.956Z,8.32
2023-04-28T02:25:35.901Z,8.93
2023-04-28T02:28:04.462Z,5.70
2023-04-28T02:30:34.845Z,10.10
2023-04-28T02:33:02.264Z,7.28
2023-04-28T02:35:29.196Z,8.77
2023-04-28T02:37:56.699Z,7.97
2023-04-28T02:40:23.640Z,10.25
2023-04-28T02:42:51.361Z,7.93
2023-04-28T02:45:18.283Z,6.80
2023-04-28T02:47:45.545Z,6.95
2023-04-28T02:50:12.522Z,6.60
2023-04-28T02:52:40.040Z,6.53
2023-04-28T02:55:07.326Z,9.30
2023-04-28T02:57:34.991Z,8.63
2023-04-28T03:00:02.856Z,8.13
2023-04-28T03:02:38.498Z,8.98
2023-04-28T03:05:05.971Z,5.90
2023-04-28T03:07:33.501Z,8.20
2023-04-28T03:10:00.970Z,5.60
2023-04-28T03:12:29.139Z,6.97
2023-04-28T03:14:56.021Z,7.88
2023-04-28T03:17:23.622Z,7.67
2023-04-28T03:19:51.378Z,11.02
2023-04-28T03:22:18.805Z,5.50
2023-04-28T03:24:47.055Z,5.87
2023-04-28T03:27:14.551Z,5.95
2023-04-28T03:29:41.683Z,7.55
2023-04-28T03:32:09.431Z,8.80
2023-04-28T03:34:36.886Z,6.63
2023-04-28T03:37:04.405Z,7.43
2023-04-28T03:39:31.481Z,5.82
2023-04-28T03:41:59.165Z,7.33
2023-04-28T03:44:44.635Z,9.13
2023-04-28T03:47:13.375Z,7.30
2023-04-28T03:49:40.967Z,6.13
2023-04-28T03:52:08.149Z,6.93
2023-04-28T03:54:35.437Z,7.47
2023-04-28T03:57:04.595Z,7.83
2023-04-28T03:59:33.475Z,10.60
2023-04-28T04:02:01.067Z,7.47
2023-04-28T04:04:28.336Z,10.50
2023-04-28T04:06:57.173Z,10.17
2023-04-28T04:09:24.180Z,7.90
2023-04-28T04:11:51.369Z,8.97
2023-04-28T04:14:18.820Z,9.40
2023-04-28T04:16:47.753Z,9.63
2023-04-28T04:19:14.586Z,9.07
2023-04-28T04:21:43.688Z,9.03
2023-04-28T04:24:10.605Z,9.63
2023-04-28T04:26:38.304Z,9.13
2023-04-28T04:29:19.899Z,9.35
2023-04-28T04:31:47.172Z,11.30
2023-04-28T04:34:14.416Z,9.13
2023-04-28T04:36:42.249Z,10.32
2023-04-28T04:39:09.877Z,13.03
2023-04-28T04:41:37.567Z,13.60
2023-04-28T04:44:20.006Z,12.03
2023-04-28T04:46:50.565Z,10.50
2023-04-28T04:49:19.176Z,9.05
2023-04-28T04:51:46.344Z,8.30
2023-04-28T04:54:13.645Z,11.30
2023-04-28T04:56:43.552Z,9.48
2023-04-28T04:59:12.685Z,8.35
2023-04-28T05:01:46.338Z,10.10
2023-04-28T05:04:13.500Z,9.82
2023-04-28T05:06:41.433Z,8.98
2023-04-28T05:09:08.410Z,11.02
2023-04-28T05:11:35.993Z,8.77
2023-04-28T05:14:03.529Z,9.85
2023-04-28T05:16:31.056Z,7.35
2023-04-28T05:19:07.121Z,9.30
2023-04-28T05:21:34.591Z,10.20
2023-04-28T05:24:02.746Z,9.68
2023-04-28T05:26:30.508Z,10.27
2023-04-28T05:29:03.019Z,7.35
2023-04-28T05:31:30.479Z,10.57
2023-04-28T05:33:59.007Z,11.15
2023-04-28T05:36:26.777Z,8.18
2023-04-28T05:38:53.745Z,8.82
2023-04-28T05:41:21.003Z,9.35
2023-04-28T05:43:50.991Z,8.75
2023-04-28T05:46:30.191Z,10.90
2023-04-28T05:48:59.619Z,9.00
2023-04-28T05:51:29.688Z,9.65
2023-04-28T05:53:56.821Z,7.57
2023-04-28T05:56:24.230Z,8.85
2023-04-28T05:58:51.407Z,8.98
2023-04-28T06:01:18.661Z,7.88
2023-04-28T06:03:46.786Z,7.20
2023-04-28T06:06:14.877Z,5.47
2023-04-28T06:08:42.980Z,6.72
2023-04-28T06:11:10.166Z,5.82
2023-04-28T06:13:37.114Z,5.47
2023-04-28T06:16:04.784Z,4.47
2023-04-28T06:18:33.025Z,8.68
2023-04-28T06:21:01.906Z,3.63
2023-04-28T06:23:28.834Z,2.20
2023-04-28T06:25:56.135Z,2.53
2023-04-28T06:28:23.071Z,2.50
2023-04-28T06:30:50.810Z,4.63
2023-04-28T06:33:17.671Z,3.83
2023-04-28T06:35:45.835Z,2.45
2023-04-28T06:38:13.188Z,3.10
2023-04-28T06:40:40.853Z,2.75
2023-04-28T06:43:08.389Z,2.58
2023-04-28T06:45:40.389Z,2.05
2023-04-28T06:48:08.261Z,4.95
2023-04-28T06:50:38.779Z,1.77
2023-04-28T06:53:07.790Z,5.70
2023-04-28T06:55:35.110Z,1.23
2023-04-28T06:58:02.010Z,2.13
2023-04-28T07:00:29.325Z,2.72
2023-04-28T07:02:56.372Z,4.82
2023-04-28T07:05:23.716Z,1.80
2023-04-28T07:07:50.593Z,2.17
2023-04-28T07:10:18.313Z,2.92
2023-04-28T07:12:45.338Z,1.75
2023-04-28T07:15:12.905Z,2.70
2023-04-28T07:17:40.066Z,2.38
2023-04-28T07:20:07.886Z,2.67
2023-04-28T07:22:34.898Z,2.65
2023-04-28T07:25:02.510Z,2.03
2023-04-28T07:27:29.467Z,2.00
2023-04-28T07:29:56.675Z,2.25
2023-04-28T07:32:24.307Z,3.22
2023-04-28T07:34:51.747Z,4.30
2023-04-28T07:37:18.803Z,2.38
2023-04-28T07:39:47.339Z,2.45
2023-04-28T07:42:14.329Z,1.67
2023-04-28T07:44:41.630Z,3.22
2023-04-28T07:47:08.756Z,2.17
2023-04-28T07:49:36.111Z,3.80
2023-04-28T07:52:03.384Z,2.63
2023-04-28T07:54:31.107Z,2.53
2023-04-28T07:57:00.836Z,3.58
2023-04-28T07:59:28.145Z,2.25
2023-04-28T08:01:55.142Z,3.30
2023-04-28T08:04:23.011Z,3.78
2023-04-28T08:06:50.354Z,10.95
2023-04-28T08:09:17.620Z,3.20
2023-04-28T08:11:44.534Z,3.33
2023-04-28T08:14:11.730Z,3.75
2023-04-28T08:16:41.357Z,2.20
2023-04-28T08:19:08.893Z,2.95
2023-04-28T08:21:36.385Z,1.90
2023-04-28T08:24:03.700Z,4.22
2023-04-28T08:26:31.288Z,1.35
2023-04-28T08:28:58.512Z,1.90
2023-04-28T08:31:25.426Z,1.40
2023-04-28T08:33:53.179Z,1.75
2023-04-28T08:36:21.313Z,1.83
2023-04-28T08:38:48.919Z,1.88
2023-04-28T08:41:17.219Z,1.20
2023-04-28T08:43:45.601Z,1.65
2023-04-28T08:46:14.954Z,1.75
2023-04-28T08:48:45.255Z,1.63
2023-04-28T08:51:16.385Z,1.77
2023-04-28T08:54:11.617Z,1.67
2023-04-28T08:56:35.529Z,2.22
2023-04-28T08:59:04.724Z,1.10
2023-04-28T09:01:32.628Z,1.40
2023-04-28T09:04:14.269Z,1.40
2023-04-28T09:06:41.559Z,2.63
2023-04-28T09:09:26.103Z,2.08
2023-04-28T09:12:00.983Z,0.98
2023-04-28T09:14:33.196Z,1.73
2023-04-28T09:17:00.891Z,3.00
2023-04-28T09:19:36.270Z,0.70
2023-04-28T09:22:17.517Z,0.68
2023-04-28T09:24:53.420Z,1.48
2023-04-28T09:27:27.213Z,0.90
2023-04-28T09:29:54.831Z,0.82
2023-04-28T09:32:23.228Z,0.73
2023-04-28T09:34:53.846Z,1.67
2023-04-28T09:37:23.342Z,3.10
2023-04-28T09:39:51.927Z,1.20
2023-04-28T09:42:35.256Z,1.55
2023-04-28T09:45:07.051Z,1.80
2023-04-28T09:47:37.975Z,1.45
2023-04-28T09:50:09.432Z,1.98
2023-04-28T09:52:36.845Z,1.17
2023-04-28T09:55:06.690Z,1.27
2023-04-28T09:57:35.118Z,1.15
2023-04-28T10:00:06.399Z,2.13
2023-04-28T10:05:13.116Z,3.63
2023-04-28T10:07:40.640Z,1.42
2023-04-28T10:10:08.733Z,1.10
2023-04-28T10:12:38.580Z,1.63
2023-04-28T10:15:07.908Z,2.30
2023-04-28T10:17:35.221Z,3.88
2023-04-28T10:20:03.429Z,2.08
2023-04-28T10:22:58.388Z,0.93
2023-04-28T10:25:32.146Z,1.85
2023-04-28T10:28:00.266Z,1.30
2023-04-28T10:30:31.244Z,3.00
2023-04-28T10:33:13.828Z,2.17
2023-04-28T10:35:42.973Z,1.65
2023-04-28T10:38:14.864Z,2.35
2023-04-28T10:40:43.690Z,2.70
2023-04-28T10:43:12.032Z,1.33
2023-04-28T10:45:56.594Z,1.58
2023-04-28T10:48:46.525Z,1.85
2023-04-28T10:51:16.715Z,3.05
2023-04-28T10:53:47.199Z,1.50
2023-04-28T10:56:16.866Z,2.58
2023-04-28T10:58:46.446Z,1.30
2023-04-28T11:01:22.888Z,1.33
2023-04-28T11:03:52.385Z,0.90
2023-04-28T11:06:28.411Z,1.95
2023-04-28T11:09:01.728Z,1.35
2023-04-28T11:11:35.045Z,1.83
2023-04-28T11:14:18.169Z,1.23
2023-04-28T11:17:02.026Z,1.33
2023-04-28T11:19:34.312Z,1.55
2023-04-28T11:22:04.095Z,1.48
2023-04-28T11:24:31.608Z,1.83
2023-04-28T11:26:59.771Z,1.88
2023-04-28T11:29:37.579Z,1.65
2023-04-28T11:32:06.249Z,2.22
2023-04-28T11:34:33.680Z,2.90
2023-04-28T11:37:01.468Z,2.03
2023-04-28T11:39:32.864Z,2.65
2023-04-28T11:42:02.464Z,1.80
2023-04-28T11:44:31.179Z,2.55
2023-04-28T11:47:03.655Z,1.10
2023-04-28T11:49:51.824Z,1.50
2023-04-28T11:52:20.682Z,3.10
2023-04-28T11:55:00.864Z,1.88
2023-04-28T11:57:28.371Z,1.25
2023-04-28T12:00:12.502Z,1.92
2023-04-28T12:02:39.888Z,1.42
2023-04-28T12:05:07.943Z,2.22
2023-04-28T12:07:46.059Z,1.48
2023-04-28T12:10:16.090Z,1.38
2023-04-28T12:12:50.964Z,1.90
2023-04-28T12:15:20.850Z,3.28
2023-04-28T12:17:49.268Z,1.30
2023-04-28T12:20:36.802Z,1.50
2023-04-28T12:23:04.480Z,1.30
2023-04-28T12:25:31.549Z,1.77
2023-04-28T12:28:00.061Z,1.73
2023-04-28T12:30:27.806Z,0.80
2023-04-28T12:32:56.200Z,0.98
2023-04-28T12:35:25.448Z,1.92
2023-04-28T12:37:53.790Z,2.42
2023-04-28T12:40:20.998Z,1.45
2023-04-28T12:42:48.279Z,1.48
2023-04-28T12:45:16.408Z,1.60
2023-04-28T12:47:44.188Z,2.88
2023-04-28T12:50:11.395Z,3.38
2023-04-28T12:52:39.076Z,2.22
2023-04-28T12:55:06.604Z,2.45
2023-04-28T12:57:39.047Z,1.33
2023-04-28T13:00:08.157Z,2.08
2023-04-28T13:02:36.082Z,1.52
2023-04-28T13:05:03.515Z,1.90
2023-04-28T13:07:30.898Z,2.10
2023-04-28T13:09:58.471Z,2.10
2023-04-28T13:12:26.113Z,1.75
2023-04-28T13:14:53.043Z,1.90
2023-04-28T13:17:20.445Z,1.40
2023-04-28T13:19:47.885Z,1.52
2023-04-28T13:22:15.831Z,2.22
2023-04-28T13:24:43.123Z,1.83
2023-04-28T13:27:11.059Z,1.50
2023-04-28T13:29:38.121Z,1.38
2023-04-28T13:32:06.049Z,2.78
2023-04-28T13:34:33.499Z,2.28
2023-04-28T13:37:01.008Z,1.60
2023-04-28T13:39:28.037Z,1.88
2023-04-28T13:41:55.300Z,2.45
2023-04-28T13:44:22.745Z,2.50
2023-04-28T13:46:50.126Z,2.58
2023-04-28T13:49:17.116Z,2.38
2023-04-28T13:51:45.827Z,1.83
2023-04-28T13:54:12.809Z,2.35
2023-04-28T13:56:40.194Z,1.50
2023-04-28T13:59:07.372Z,2.40
2023-04-28T14:01:34.709Z,1.70
2023-04-28T14:04:02.399Z,2.28
2023-04-28T14:06:30.493Z,2.88
2023-04-28T14:08:58.520Z,3.03
2023-04-28T14:11:26.871Z,2.40
2023-04-28T14:13:54.035Z,5.07
2023-04-28T14:16:21.697Z,3.30
2023-04-28T14:18:48.646Z,1.88
2023-04-28T14:21:15.956Z,2.80
2023-04-28T14:23:42.977Z,3.15
2023-04-28T14:26:10.171Z,5.30
2023-04-28T14:28:37.772Z,1.42
2023-04-28T14:31:09.083Z,3.40
2023-04-28T14:33:36.821Z,3.85
2023-04-28T14:36:05.127Z,3.67
2023-04-28T14:38:32.184Z,3.30
2023-04-28T14:40:59.552Z,2.53
2023-04-28T14:43:26.495Z,3.28
2023-04-28T14:45:54.025Z,2.03
2023-04-28T14:48:21.049Z,2.55
2023-04-28T14:50:48.358Z,2.33
2023-04-28T14:53:15.393Z,2.72
2023-04-28T14:55:42.540Z,2.88
2023-04-28T14:58:09.460Z,2.45
2023-04-28T15:00:36.827Z,2.35
2023-04-28T15:03:04.244Z,3.70
2023-04-28T15:05:31.989Z,5.70
2023-04-28T15:07:59.164Z,4.85
2023-04-28T15:10:33.069Z,5.80
2023-04-28T15:13:00.073Z,2.75
2023-04-28T15:15:27.582Z,18.38
2023-04-28T15:18:00.669Z,3.25
2023-04-28T15:20:30.472Z,75.57
2023-04-28T15:22:57.516Z,3.15
2023-04-28T15:25:25.446Z,3.05
2023-04-28T15:27:52.620Z,3.55
2023-04-28T15:30:19.974Z,3.30
2023-04-28T15:32:48.834Z,4.13
2023-04-28T15:35:16.641Z,3.65
2023-04-28T15:37:46.959Z,1.88
2023-04-28T15:40:16.637Z,2.75
2023-04-28T15:42:49.096Z,2.17
2023-04-28T15:45:16.927Z,3.33
2023-04-28T15:47:45.123Z,2.63
2023-04-28T15:50:12.868Z,3.72
2023-04-28T15:52:46.505Z,3.10
2023-04-28T15:55:14.578Z,2.88
2023-04-28T15:57:41.890Z,4.22
2023-04-28T16:00:10.449Z,5.18
2023-04-28T16:02:38.856Z,2.50
2023-04-28T16:05:06.873Z,3.28
2023-04-28T16:07:44.421Z,10.98
2023-04-28T16:10:16.587Z,12.55
2023-04-28T16:12:43.652Z,8.32
2023-04-28T16:15:12.722Z,4.05
2023-04-28T16:17:40.789Z,4.38
2023-04-28T16:20:09.761Z,2.83
2023-04-28T16:22:37.710Z,3.60
2023-04-28T16:25:06.813Z,2.30
2023-04-28T16:27:34.664Z,4.70
2023-04-28T16:30:01.894Z,4.78
2023-04-28T16:32:29.273Z,2.95
2023-04-28T16:34:57.496Z,4.03
2023-04-28T16:37:24.406Z,2.92
2023-04-28T16:39:52.556Z,5.40
2023-04-28T16:42:21.927Z,3.65
2023-04-28T16:44:51.805Z,5.78
2023-04-28T16:47:20.112Z,3.15
2023-04-28T16:49:48.038Z,2.92
2023-04-28T16:52:15.232Z,2.40
2023-04-28T16:54:42.471Z,4.88
2023-04-28T16:57:09.327Z,4.75
2023-04-28T16:59:37.423Z,3.35
2023-04-28T17:02:04.533Z,3.08
2023-04-28T17:04:32.262Z,100.32
2023-04-28T17:06:59.475Z,65.53
2023-04-28T17:09:27.659Z,25.83
2023-04-28T17:11:55.037Z,193.40
2023-04-28T17:14:22.442Z,83.95
2023-04-28T17:16:49.447Z,53.75
2023-04-28T17:19:17.024Z,4.95
2023-04-28T17:21:44.026Z,4.35
2023-04-28T17:24:11.928Z,92.93
2023-04-28T17:26:38.994Z,11.48
2023-04-28T17:29:06.891Z,4.05
2023-04-28T17:31:33.862Z,44.83
2023-04-28T17:34:01.165Z,12.57
2023-04-28T17:36:28.614Z,79.28
2023-04-28T17:38:56.218Z,96.32
2023-04-28T17:41:23.610Z,185.52
2023-04-28T17:43:53.729Z,62.30
2023-04-28T17:46:21.834Z,83.93
2023-04-28T17:48:49.801Z,10.95
2023-04-28T17:51:16.868Z,37.05
2023-04-28T17:53:46.246Z,4.18
2023-04-28T17:56:13.340Z,6.40
2023-04-28T17:58:40.732Z,5.43
2023-04-28T18:01:08.249Z,18.98
2023-04-28T18:03:36.166Z,85.75
2023-04-28T18:06:04.935Z,102.07
2023-04-28T18:08:32.736Z,56.88
2023-04-28T18:11:00.686Z,21.75
2023-04-28T18:13:28.114Z,55.38
2023-04-28T18:15:55.081Z,155.63
2023-04-28T18:18:23.247Z,116.57
2023-04-28T18:20:50.331Z,83.97
2023-04-28T18:23:17.639Z,65.10
2023-04-28T18:25:44.583Z,82.28
2023-04-28T18:28:11.870Z,67.50
2023-04-28T18:30:38.730Z,49.72
2023-04-28T18:33:07.592Z,75.43
2023-04-28T18:35:35.519Z,33.67
2023-04-28T18:38:03.716Z,65.32
2023-04-28T18:40:34.708Z,55.30
2023-04-28T18:43:02.333Z,27.58
2023-04-28T18:45:34.472Z,5.47
2023-04-28T18:48:03.164Z,3.17
2023-04-28T18:50:30.766Z,19.45
2023-04-28T18:53:00.359Z,173.20
2023-04-28T18:55:27.235Z,162.27
2023-04-28T18:57:54.583Z,5.50
2023-04-28T19:00:21.873Z,7.50
2023-04-28T19:02:49.285Z,12.68
2023-04-28T19:05:16.384Z,66.90
2023-04-28T19:07:44.134Z,30.88
2023-04-28T19:10:12.225Z,170.00
2023-04-28T19:12:39.972Z,122.97
2023-04-28T19:15:07.844Z,180.75
2023-04-28T19:17:35.277Z,610.28
2023-04-28T19:20:02.356Z,669.83
2023-04-28T19:22:35.611Z,188.23
2023-04-28T19:25:04.245Z,73.72
2023-04-28T19:27:33.041Z,31.90
2023-04-28T19:30:01.262Z,50.90
2023-04-28T19:32:29.394Z,82.55
2023-04-28T19:34:56.707Z,53.67
2023-04-28T19:37:25.493Z,173.85
2023-04-28T19:39:52.827Z,201.77
2023-04-28T19:42:20.405Z,82.57
2023-04-28T19:44:47.740Z,52.03
2023-04-28T19:47:23.416Z,6.45
2023-04-28T19:49:51.865Z,3.35
2023-04-28T19:52:23.394Z,63.30
2023-04-28T19:54:51.003Z,85.30
2023-04-28T19:57:18.900Z,49.58
2023-04-28T19:59:47.304Z,36.55
2023-04-28T20:02:16.153Z,5.03
2023-04-28T20:04:43.359Z,3.85
2023-04-28T20:07:11.012Z,17.48
2023-04-28T20:09:38.719Z,18.45
2023-04-28T20:12:08.650Z,17.23
2023-04-28T20:14:35.976Z,22.55
2023-04-28T20:17:04.373Z,14.18
2023-04-28T20:19:31.614Z,6.18
2023-04-28T20:21:58.970Z,7.25
2023-04-28T20:24:25.968Z,6.93
2023-04-28T20:26:54.790Z,14.45
2023-04-28T20:29:22.156Z,21.50
2023-04-28T20:31:50.252Z,26.58
2023-04-28T20:34:18.144Z,79.78
2023-04-28T20:36:45.329Z,139.88
2023-04-28T20:39:13.103Z,138.95
2023-04-28T20:41:41.086Z,164.93
2023-04-28T20:44:08.638Z,8.75
2023-04-28T20:46:36.495Z,18.02
2023-04-28T20:49:04.470Z,81.80
2023-04-28T20:51:35.156Z,9.98
2023-04-28T20:54:03.440Z,37.03
2023-04-28T20:56:30.695Z,89.40
2023-04-28T20:58:57.639Z,154.50
2023-04-28T21:01:24.895Z,184.15
2023-04-28T21:03:51.921Z,177.10
2023-04-28T21:06:19.241Z,113.00
2023-04-28T21:08:46.219Z,80.00
2023-04-28T21:11:17.648Z,63.65
2023-04-28T21:13:45.077Z,41.10
2023-04-28T21:16:19.622Z,4.60
2023-04-28T21:18:49.266Z,168.68
2023-04-28T21:21:16.949Z,9.05
2023-04-28T21:23:44.327Z,6.85
2023-04-28T21:26:11.708Z,25.05
2023-04-28T21:28:40.085Z,36.55
2023-04-28T21:31:07.686Z,6.13
2023-04-28T21:33:34.614Z,41.90
2023-04-28T21:36:09.304Z,86.70
2023-04-28T21:38:37.278Z,104.25
2023-04-28T21:41:04.908Z,9.18
2023-04-28T21:43:31.879Z,9.55
2023-04-28T21:45:59.459Z,27.63
2023-04-28T21:48:26.393Z,48.03
2023-04-28T21:50:53.627Z,19.55
2023-04-28T21:53:20.719Z,19.05
2023-04-28T21:55:48.054Z,14.88
2023-04-28T21:58:15.264Z,7.40
2023-04-28T22:00:46.545Z,6.93
2023-04-28T22:03:15.335Z,4.43
2023-04-28T22:05:44.398Z,4.15
2023-04-28T22:08:11.716Z,4.15
2023-04-28T22:10:39.059Z,3.13
2023-04-28T22:13:06.705Z,25.05
2023-04-28T22:15:34.216Z,4.18
2023-04-28T22:18:01.308Z,3.63
2023-04-28T22:20:29.125Z,5.38
2023-04-28T22:22:57.545Z,12.57
2023-04-28T22:25:25.064Z,5.82
2023-04-28T22:27:52.138Z,16.65
2023-04-28T22:30:19.588Z,3.95
2023-04-28T22:32:47.379Z,3.25
2023-04-28T22:35:16.764Z,4.95
2023-04-28T22:37:44.194Z,9.18
2023-04-28T22:40:11.924Z,8.38
2023-04-28T22:42:40.288Z,4.88
2023-04-28T22:45:08.443Z,4.30
2023-04-28T22:47:36.187Z,15.82
2023-04-28T22:50:07.972Z,6.15
2023-04-28T22:52:35.113Z,7.00
2023-04-28T22:55:02.535Z,15.98
2023-04-28T22:57:29.538Z,10.60
2023-04-28T22:59:56.774Z,27.52
2023-04-28T23:02:23.994Z,43.78
2023-04-28T23:04:51.560Z,62.63
2023-04-28T23:07:18.585Z,44.15
2023-04-28T23:09:45.778Z,34.03
2023-04-28T23:12:12.690Z,6.88
2023-04-28T23:14:39.959Z,4.00
2023-04-28T23:17:06.872Z,4.05
2023-04-28T23:19:39.239Z,3.60
2023-04-28T23:22:08.025Z,2.03
2023-04-28T23:24:36.950Z,3.42
2023-04-28T23:27:04.691Z,4.65
2023-04-28T23:29:32.629Z,7.85
2023-04-28T23:31:59.747Z,7.45
2023-04-28T23:34:27.192Z,8.35
2023-04-28T23:36:54.281Z,5.15
2023-04-28T23:39:21.514Z,7.65
2023-04-28T23:41:48.399Z,4.75
2023-04-28T23:44:15.760Z,6.97
2023-04-28T23:46:43.010Z,3.58
2023-04-28T23:49:10.412Z,5.75
2023-04-28T23:51:37.460Z,7.82
2023-04-28T23:54:04.702Z,6.70
2023-04-28T23:56:31.730Z,5.38
2023-04-28T23:58:59.048Z,6.88
